createdAt,value
2022-10-31T00:02:04.952Z,100776.41
2022-10-31T00:05:07.285Z,100772.09
2022-10-31T00:08:10.299Z,100777.66
2022-10-31T00:11:12.291Z,100774.06
2022-10-31T00:14:13.904Z,100776.97
2022-10-31T00:17:15.547Z,100767.59
2022-10-31T00:20:17.369Z,100766.53
2022-10-31T00:23:20.484Z,100771.47
2022-10-31T00:26:22.142Z,100770.22
2022-10-31T00:29:23.723Z,100776.41
2022-10-31T00:32:25.382Z,100772.56
2022-10-31T00:35:26.976Z,100775.69
2022-10-31T00:38:29.999Z,100781.72
2022-10-31T00:41:31.707Z,100777.69
2022-10-31T00:44:33.384Z,100785.72
2022-10-31T00:47:35.102Z,100788.06
2022-10-31T00:50:37.504Z,100788.56
2022-10-31T00:53:40.558Z,100796.94
2022-10-31T00:56:42.359Z,100796.75
2022-10-31T00:59:44.016Z,100795.53
2022-10-31T01:02:46.630Z,100795.03
2022-10-31T01:05:56.754Z,100798.47
2022-10-31T01:09:00.059Z,100803.25
2022-10-31T01:12:01.691Z,100799.25
2022-10-31T01:15:04.001Z,100804.81
2022-10-31T01:18:05.618Z,100802.50
2022-10-31T01:21:09.152Z,100807.44
2022-10-31T01:24:12.104Z,100802.81
2022-10-31T01:27:14.096Z,100801.72
2022-10-31T01:30:15.964Z,100800.66
2022-10-31T01:33:17.602Z,100800.66
2022-10-31T01:36:21.644Z,100806.97
2022-10-31T01:39:27.364Z,100804.50
2022-10-31T01:42:29.031Z,100798.78
2022-10-31T01:45:30.794Z,100803.59
2022-10-31T01:48:32.392Z,100790.59
2022-10-31T01:51:39.644Z,100778.69
2022-10-31T01:54:49.419Z,100786.41
2022-10-31T01:57:54.757Z,100782.50
2022-10-31T02:01:03.244Z,100779.41
2022-10-31T02:04:08.824Z,100787.63
2022-10-31T02:07:14.927Z,100789.03
2022-10-31T02:10:18.851Z,100787.94
2022-10-31T02:13:22.326Z,100777.56
2022-10-31T02:16:24.981Z,100786.69
2022-10-31T02:19:35.704Z,100789.41
2022-10-31T02:22:45.114Z,100789.28
2022-10-31T02:26:19.435Z,100780.47
2022-10-31T02:29:54.549Z,100772.19
2022-10-31T02:33:23.392Z,100767.69
2022-10-31T02:36:29.693Z,100770.78
2022-10-31T02:39:39.020Z,100774.19
2022-10-31T02:42:50.240Z,100766.47
2022-10-31T02:46:01.999Z,100759.34
2022-10-31T02:49:11.733Z,100769.72
2022-10-31T02:52:18.048Z,100763.72
2022-10-31T02:55:47.750Z,100757.06
2022-10-31T02:58:52.774Z,100763.56
2022-10-31T03:02:13.999Z,100763.72
2022-10-31T03:05:29.531Z,100757.50
2022-10-31T03:08:36.487Z,100755.19
2022-10-31T03:11:45.710Z,100753.81
2022-10-31T03:14:54.474Z,100757.53
2022-10-31T03:18:02.386Z,100757.38
2022-10-31T03:21:11.627Z,100756.59
2022-10-31T03:24:14.336Z,100752.09
2022-10-31T03:27:19.808Z,100759.06
2022-10-31T03:30:21.518Z,100767.88
2022-10-31T03:33:35.623Z,100760.63
2022-10-31T03:36:40.963Z,100753.81
2022-10-31T03:39:45.361Z,100754.44
2022-10-31T03:42:59.400Z,100756.91
2022-10-31T03:46:01.592Z,100756.91
2022-10-31T03:49:04.083Z,100756.75
2022-10-31T03:52:19.228Z,100753.66
2022-10-31T03:55:29.101Z,100757.22
2022-10-31T03:58:38.136Z,100755.38
2022-10-31T04:01:45.783Z,100757.50
2022-10-31T04:04:49.416Z,100758.91
2022-10-31T04:07:56.938Z,100759.69
2022-10-31T04:11:01.351Z,100750.44
2022-10-31T04:14:05.628Z,100754.00
2022-10-31T04:17:14.422Z,100749.34
2022-10-31T04:20:18.133Z,100748.41
2022-10-31T04:23:25.121Z,100746.56
2022-10-31T04:26:26.923Z,100745.16
2022-10-31T04:29:29.193Z,100747.81
2022-10-31T04:32:31.130Z,100739.16
2022-10-31T04:35:33.256Z,100746.88
2022-10-31T04:38:36.358Z,100738.22
2022-10-31T04:41:43.531Z,100739.75
2022-10-31T04:44:51.091Z,100740.84
2022-10-31T04:47:52.791Z,100746.41
2022-10-31T04:50:59.171Z,100749.31
2022-10-31T04:54:02.360Z,100754.91
2022-10-31T04:57:06.622Z,100755.03
2022-10-31T05:00:09.600Z,100757.81
2022-10-31T05:03:11.436Z,100754.59
2022-10-31T05:06:13.232Z,100764.44
2022-10-31T05:09:18.434Z,100761.31
2022-10-31T05:12:20.129Z,100771.81
2022-10-31T05:15:40.299Z,100765.78
2022-10-31T05:19:04.828Z,100773.78
2022-10-31T05:22:25.187Z,100759.13
2022-10-31T05:25:30.134Z,100752.91
2022-10-31T05:28:31.796Z,100747.84
2022-10-31T05:31:34.888Z,100751.25
2022-10-31T05:34:37.658Z,100754.31
2022-10-31T05:37:52.161Z,100750.31
2022-10-31T05:41:03.060Z,100745.84
2022-10-31T05:44:07.051Z,100752.03
2022-10-31T05:47:19.572Z,100740.41
2022-10-31T05:50:44.075Z,100750.16
2022-10-31T05:53:47.206Z,100754.59
2022-10-31T05:56:50.292Z,100755.66
2022-10-31T05:59:56.118Z,100758.13
2022-10-31T06:02:59.949Z,100751.31
2022-10-31T06:06:25.614Z,100755.19
2022-10-31T06:09:27.444Z,100755.78
2022-10-31T06:12:30.894Z,100761.66
2022-10-31T06:15:51.125Z,100757.75
2022-10-31T06:18:56.461Z,100762.63
2022-10-31T06:21:58.140Z,100752.13
2022-10-31T06:25:00.391Z,100750.31
2022-10-31T06:28:06.566Z,100754.06
2022-10-31T06:31:24.348Z,100743.72
2022-10-31T06:34:26.012Z,100747.91
2022-10-31T06:37:27.758Z,100756.97
2022-10-31T06:40:36.034Z,100747.09
2022-10-31T06:44:09.050Z,100756.41
2022-10-31T06:47:30.671Z,100752.13
2022-10-31T06:50:32.348Z,100754.91
2022-10-31T06:53:33.930Z,100762.47
2022-10-31T06:56:36.152Z,100768.53
2022-10-31T06:59:40.075Z,100763.03
2022-10-31T07:02:55.393Z,100758.06
2022-10-31T07:05:58.883Z,100749.75
2022-10-31T07:09:00.586Z,100754.84
2022-10-31T07:12:02.193Z,100758.53
2022-10-31T07:15:08.013Z,100757.81
2022-10-31T07:18:11.496Z,100757.97
2022-10-31T07:21:13.402Z,100753.94
2022-10-31T07:24:15.395Z,100746.56
2022-10-31T07:27:41.637Z,100752.44
2022-10-31T07:30:50.711Z,100742.84
2022-10-31T07:33:54.596Z,100747.50
2022-10-31T07:37:02.234Z,100745.91
2022-10-31T07:40:07.173Z,100745.47
2022-10-31T07:43:14.043Z,100747.78
2022-10-31T07:46:46.627Z,100757.50
2022-10-31T07:50:08.443Z,100760.00
2022-10-31T07:53:31.974Z,100751.75
2022-10-31T07:56:43.668Z,100755.91
2022-10-31T07:59:45.391Z,100752.63
2022-10-31T08:02:48.721Z,100739.13
2022-10-31T08:06:09.220Z,100740.31
2022-10-31T08:09:40.125Z,100746.00
2022-10-31T08:12:57.683Z,100725.34
2022-10-31T08:16:04.458Z,100730.09
2022-10-31T08:19:09.967Z,100721.03
2022-10-31T08:22:13.909Z,100724.31
2022-10-31T08:25:15.814Z,100732.97
2022-10-31T08:28:18.065Z,100726.19
2022-10-31T08:31:22.233Z,100731.78
2022-10-31T08:34:25.359Z,100725.59
2022-10-31T08:38:05.582Z,100725.34
2022-10-31T08:41:07.339Z,100729.44
2022-10-31T08:44:09.084Z,100729.25
2022-10-31T08:47:10.731Z,100713.91
2022-10-31T08:50:14.180Z,100707.06
2022-10-31T08:53:17.837Z,100703.63
2022-10-31T08:56:23.284Z,100705.06
2022-10-31T08:59:25.118Z,100714.25
2022-10-31T09:02:46.778Z,100714.38
2022-10-31T09:05:51.660Z,100711.59
2022-10-31T09:08:53.381Z,100713.31
2022-10-31T09:11:55.111Z,100711.91
2022-10-31T09:15:16.936Z,100715.47
2022-10-31T09:18:23.937Z,100719.28
2022-10-31T09:21:31.761Z,100717.97
2022-10-31T09:24:34.130Z,100714.28
2022-10-31T09:27:35.808Z,100712.84
2022-10-31T09:30:38.079Z,100718.47
2022-10-31T09:33:39.771Z,100713.59
2022-10-31T09:37:02.755Z,100712.00
2022-10-31T09:40:05.351Z,100712.53
2022-10-31T09:43:20.462Z,100715.97
2022-10-31T09:46:31.432Z,100705.91
2022-10-31T09:49:54.432Z,100708.31
2022-10-31T09:53:03.607Z,100713.59
2022-10-31T09:56:09.243Z,100700.38
2022-10-31T09:59:18.000Z,100699.81
2022-10-31T10:02:26.304Z,100700.09
2022-10-31T10:05:35.178Z,100698.63
2022-10-31T10:08:41.408Z,100702.09
2022-10-31T10:12:15.844Z,100685.06
2022-10-31T10:15:34.102Z,100687.00
2022-10-31T10:18:47.810Z,100678.69
2022-10-31T10:21:58.524Z,100682.34
2022-10-31T10:25:15.638Z,100677.13
2022-10-31T10:28:22.225Z,100674.53
2022-10-31T10:31:28.575Z,100674.69
2022-10-31T10:34:32.916Z,100668.72
2022-10-31T10:37:39.320Z,100660.88
2022-10-31T10:40:43.143Z,100664.72
2022-10-31T10:43:44.987Z,100658.16
2022-10-31T10:47:11.666Z,100662.50
2022-10-31T10:50:19.296Z,100653.38
2022-10-31T10:53:49.865Z,100656.81
2022-10-31T10:57:05.525Z,100648.09
2022-10-31T11:00:18.184Z,100647.03
2022-10-31T11:03:20.558Z,100647.84
2022-10-31T11:06:26.721Z,100637.97
2022-10-31T11:09:28.469Z,100634.16
2022-10-31T11:12:34.376Z,100623.28
2022-10-31T11:15:52.687Z,100621.44
2022-10-31T11:19:05.858Z,100621.34
2022-10-31T11:22:09.652Z,100605.06
2022-10-31T11:25:22.422Z,100607.84
2022-10-31T11:28:26.476Z,100606.44
2022-10-31T11:31:28.568Z,100603.81
2022-10-31T11:34:33.986Z,100596.53
2022-10-31T11:37:41.324Z,100598.25
2022-10-31T11:40:52.963Z,100586.38
2022-10-31T11:44:00.178Z,100583.00
2022-10-31T11:47:04.090Z,100579.22
2022-10-31T11:50:11.714Z,100590.31
2022-10-31T11:53:17.099Z,100571.97
2022-10-31T11:56:19.070Z,100571.97
2022-10-31T11:59:29.286Z,100564.81
2022-10-31T12:02:31.614Z,100570.47
2022-10-31T12:05:33.925Z,100568.72
2022-10-31T12:08:37.414Z,100560.31
2022-10-31T12:11:47.669Z,100545.28
2022-10-31T12:15:00.744Z,100547.94
2022-10-31T12:18:36.519Z,100539.75
2022-10-31T12:21:53.012Z,100540.09
2022-10-31T12:25:08.705Z,100531.84
2022-10-31T12:28:41.357Z,100531.69
2022-10-31T12:32:10.254Z,100532.47
2022-10-31T12:35:27.039Z,100527.88
2022-10-31T12:38:55.597Z,100519.09
2022-10-31T12:42:06.702Z,100510.09
2022-10-31T12:45:32.022Z,100503.41
2022-10-31T12:48:57.535Z,100490.72
2022-10-31T12:52:15.182Z,100486.88
2022-10-31T12:55:35.227Z,100500.56
2022-10-31T12:58:41.161Z,100491.19
2022-10-31T13:01:50.218Z,100486.78
2022-10-31T13:04:57.510Z,100480.00
2022-10-31T13:08:06.455Z,100479.00
2022-10-31T13:11:12.431Z,100480.78
2022-10-31T13:14:23.158Z,100475.84
2022-10-31T13:17:30.971Z,100469.00
2022-10-31T13:20:41.423Z,100467.16
2022-10-31T13:23:50.769Z,100448.16
2022-10-31T13:26:55.916Z,100437.59
2022-10-31T13:30:01.818Z,100430.88
2022-10-31T13:33:10.662Z,100415.06
2022-10-31T13:36:22.306Z,100415.75
2022-10-31T13:39:33.315Z,100413.38
2022-10-31T13:42:47.937Z,100410.91
2022-10-31T13:45:51.551Z,100402.84
2022-10-31T13:48:53.185Z,100393.75
2022-10-31T13:52:07.210Z,100398.25
2022-10-31T13:55:39.347Z,100389.00
2022-10-31T13:58:55.893Z,100389.19
2022-10-31T14:02:01.217Z,100381.94
2022-10-31T14:05:06.861Z,100373.91
2022-10-31T14:08:23.209Z,100381.38
2022-10-31T14:11:32.850Z,100399.03
2022-10-31T14:14:46.507Z,100420.63
2022-10-31T14:17:51.219Z,100427.13
2022-10-31T14:20:52.920Z,100413.66
2022-10-31T14:23:56.814Z,100422.13
2022-10-31T14:27:01.781Z,100422.97
2022-10-31T14:30:16.817Z,100409.72
2022-10-31T14:33:21.216Z,100414.09
2022-10-31T14:36:29.007Z,100417.59
2022-10-31T14:39:36.580Z,100431.59
2022-10-31T14:42:57.839Z,100423.59
2022-10-31T14:46:03.149Z,100420.69
2022-10-31T14:49:27.737Z,100423.28
2022-10-31T14:52:29.451Z,100412.50
2022-10-31T14:55:33.214Z,100403.16
2022-10-31T14:58:39.333Z,100407.00
2022-10-31T15:01:55.034Z,100405.09
2022-10-31T15:04:59.816Z,100403.13
2022-10-31T15:08:01.683Z,100404.41
2022-10-31T15:11:13.276Z,100414.47
2022-10-31T15:14:24.430Z,100416.66
2022-10-31T15:17:27.220Z,100409.00
2022-10-31T15:20:31.045Z,100412.50
2022-10-31T15:23:33.678Z,100423.25
2022-10-31T15:26:43.853Z,100408.91
2022-10-31T15:29:50.321Z,100396.94
2022-10-31T15:32:58.340Z,100382.75
2022-10-31T15:36:02.171Z,100392.22
2022-10-31T15:39:04.027Z,100390.47
2022-10-31T15:42:19.205Z,100388.75
2022-10-31T15:45:24.679Z,100384.59
2022-10-31T15:48:26.434Z,100369.16
2022-10-31T15:51:31.202Z,100355.03
2022-10-31T15:54:33.410Z,100335.66
2022-10-31T15:57:41.467Z,100330.75
2022-10-31T16:00:43.221Z,100330.28
2022-10-31T16:03:44.969Z,100308.06
2022-10-31T16:07:00.356Z,100278.47
2022-10-31T16:10:04.695Z,100253.03
2022-10-31T16:13:09.155Z,100249.56
2022-10-31T16:16:34.224Z,100262.03
2022-10-31T16:19:39.445Z,100250.78
2022-10-31T16:22:41.939Z,100215.59
2022-10-31T16:25:43.634Z,100207.69
2022-10-31T16:29:03.465Z,100222.41
2022-10-31T16:32:42.378Z,100207.94
2022-10-31T16:35:44.031Z,100188.94
2022-10-31T16:38:45.684Z,100163.72
2022-10-31T16:41:52.094Z,100162.50
2022-10-31T16:44:55.145Z,100161.94
2022-10-31T16:48:04.692Z,100188.72
2022-10-31T16:51:08.216Z,100208.69
2022-10-31T16:54:11.472Z,100213.03
2022-10-31T16:57:28.007Z,100220.41
2022-10-31T17:00:31.613Z,100245.22
2022-10-31T17:03:33.822Z,100263.75
2022-10-31T17:06:36.789Z,100289.41
2022-10-31T17:09:38.509Z,100299.44
2022-10-31T17:12:43.396Z,100304.53
2022-10-31T17:15:48.528Z,100296.63
2022-10-31T17:18:50.342Z,100294.13
2022-10-31T17:21:52.003Z,100280.41
2022-10-31T17:24:53.676Z,100254.06
2022-10-31T17:27:56.458Z,100248.22
2022-10-31T17:30:59.625Z,100240.53
2022-10-31T17:34:02.755Z,100223.25
2022-10-31T17:37:05.302Z,100217.75
2022-10-31T17:40:07.891Z,100205.38
2022-10-31T17:43:10.915Z,100208.78
2022-10-31T17:46:14.008Z,100202.31
2022-10-31T17:49:15.692Z,100213.72
2022-10-31T17:52:17.336Z,100222.78
2022-10-31T17:55:19.741Z,100239.03
2022-10-31T17:58:21.339Z,100245.00
2022-10-31T18:01:24.650Z,100243.81
2022-10-31T18:04:26.553Z,100236.09
2022-10-31T18:07:28.457Z,100227.38
2022-10-31T18:10:30.130Z,100236.69
2022-10-31T18:13:31.752Z,100241.75
2022-10-31T18:19:41.381Z,100263.53
2022-10-31T18:22:43.073Z,100264.84
2022-10-31T18:25:44.714Z,100265.63
2022-10-31T18:28:46.403Z,100287.28
2022-10-31T18:31:51.334Z,100293.28
2022-10-31T18:34:53.023Z,100281.72
2022-10-31T18:37:56.042Z,100291.47
2022-10-31T18:40:59.839Z,100304.47
2022-10-31T18:44:01.445Z,100308.41
2022-10-31T18:47:04.589Z,100321.69
2022-10-31T18:50:07.221Z,100319.94
2022-10-31T18:53:08.936Z,100310.16
2022-10-31T18:56:11.292Z,100322.47
2022-10-31T18:59:12.970Z,100310.72
2022-10-31T19:02:17.481Z,100307.84
2022-10-31T19:05:21.269Z,100327.47
2022-10-31T19:08:23.736Z,100326.91
2022-10-31T19:11:25.916Z,100322.47
2022-10-31T19:14:27.614Z,100333.41
2022-10-31T19:17:30.657Z,100323.38
2022-10-31T19:20:32.595Z,100316.53
2022-10-31T19:23:34.419Z,100319.72
2022-10-31T19:26:36.107Z,100310.06
2022-10-31T19:29:37.777Z,100307.19
2022-10-31T19:32:40.798Z,100312.34
2022-10-31T19:35:42.527Z,100309.59
2022-10-31T19:38:45.992Z,100300.88
2022-10-31T19:41:47.631Z,100291.69
2022-10-31T19:44:49.363Z,100293.81
2022-10-31T19:47:52.447Z,100295.53
2022-10-31T19:51:00.144Z,100274.28
2022-10-31T19:54:01.871Z,100276.53
2022-10-31T19:57:03.669Z,100306.81
2022-10-31T20:00:06.658Z,100278.09
2022-10-31T20:03:18.402Z,100280.06
2022-10-31T20:06:24.968Z,100314.13
2022-10-31T20:09:26.713Z,100324.25
2022-10-31T20:12:29.615Z,100312.44
2022-10-31T20:15:31.380Z,100312.28
2022-10-31T20:18:35.831Z,100314.78
2022-10-31T20:21:39.532Z,100310.06
2022-10-31T20:24:41.220Z,100316.53
2022-10-31T20:27:43.006Z,100306.78
2022-10-31T20:30:44.888Z,100308.22
2022-10-31T20:33:48.816Z,100305.88
2022-10-31T20:36:50.561Z,100303.50
2022-10-31T20:39:54.172Z,100301.91
2022-10-31T20:42:58.592Z,100299.66
2022-10-31T20:46:00.799Z,100301.25
2022-10-31T20:49:03.941Z,100301.25
2022-10-31T20:52:05.710Z,100299.53
2022-10-31T20:55:08.070Z,100292.16
2022-10-31T20:58:09.819Z,100301.13
2022-10-31T21:01:13.605Z,100282.41
2022-10-31T21:04:16.877Z,100277.13
2022-10-31T21:07:18.630Z,100285.28
2022-10-31T21:10:20.421Z,100285.16
2022-10-31T21:13:22.475Z,100277.91
2022-10-31T21:16:26.895Z,100284.78
2022-10-31T21:19:29.956Z,100277.13
2022-10-31T21:22:31.901Z,100277.28
2022-10-31T21:25:33.721Z,100280.97
2022-10-31T21:28:35.888Z,100275.56
2022-10-31T21:31:38.500Z,100269.28
2022-10-31T21:34:41.476Z,100269.06
2022-10-31T21:37:43.194Z,100271.56
2022-10-31T21:40:44.833Z,100256.75
2022-10-31T21:43:49.056Z,100236.38
2022-10-31T21:46:50.685Z,100222.31
2022-10-31T21:49:53.745Z,100211.25
2022-10-31T21:52:55.359Z,100204.97
2022-10-31T21:56:03.033Z,100194.25
2022-10-31T21:59:05.273Z,100194.97
2022-10-31T22:02:09.369Z,100186.69
2022-10-31T22:05:12.394Z,100182.56
2022-10-31T22:08:14.086Z,100179.31
2022-10-31T22:11:17.652Z,100183.09
2022-10-31T22:14:19.356Z,100181.50
2022-10-31T22:17:20.941Z,100184.47
2022-10-31T22:20:24.580Z,100185.53
2022-10-31T22:23:26.308Z,100192.66
2022-10-31T22:26:28.153Z,100203.94
2022-10-31T22:29:29.776Z,100206.47
2022-10-31T22:32:31.474Z,100216.50
2022-10-31T22:35:35.095Z,100221.50
2022-10-31T22:38:40.081Z,100224.84
2022-10-31T22:41:42.142Z,100224.28
2022-10-31T22:44:43.787Z,100227.22
2022-10-31T22:47:45.385Z,100231.72
2022-10-31T22:50:48.422Z,100232.88
2022-10-31T22:53:50.904Z,100232.00
2022-10-31T22:56:52.613Z,100215.50
2022-10-31T22:59:54.571Z,100231.47
2022-10-31T23:02:56.233Z,100226.13
2022-10-31T23:06:01.383Z,100224.94
2022-10-31T23:09:07.136Z,100223.13
2022-10-31T23:12:27.495Z,100227.03
2022-10-31T23:15:29.180Z,100234.06
2022-10-31T23:18:49.179Z,100235.66
2022-10-31T23:22:01.953Z,100237.91
2022-10-31T23:25:04.252Z,100244.53
2022-10-31T23:28:05.871Z,100238.38
2022-10-31T23:31:07.567Z,100236.06
2022-10-31T23:34:09.415Z,100250.31
2022-10-31T23:37:13.381Z,100248.34
2022-10-31T23:40:15.303Z,100248.22
2022-10-31T23:43:16.923Z,100250.22
2022-10-31T23:46:18.570Z,100245.63
2022-10-31T23:49:20.569Z,100240.47
2022-10-31T23:52:23.679Z,100222.00
2022-10-31T23:55:25.323Z,100237.53
2022-10-31T23:58:26.985Z,100231.31
